Time;durP1;ratioP1;P1;durP2;ratioP2;P2;SDS_P1;SDS_P2;PMS_P1;PMS_P2;Temp;Humidity;BMP_temperature;BMP_pressure;BME280_temperature;BME280_humidity;BME280_pressure;Samples;Min_cycle;Max_cycle;Signal;HPM_P1;HPM_P2
2021/12/22 00:01:05;;;;;;;22.27;11.02;;;;;;;;;;4987429;28;20100;-66
2021/12/22 00:03:34;;;;;;;25.90;10.45;;;;;;;;;;4986382;28;20046;-66
2021/12/22 00:06:04;;;;;;;24.75;10.30;;;;;;;;;;4987186;28;20047;-66
2021/12/22 00:08:34;;;;;;;20.27;9.48;;;;;;;;;;4977754;28;20142;-66
2021/12/22 00:11:05;;;;;;;17.95;9.60;;;;;;;;;;4975848;28;20196;-66
2021/12/22 00:13:33;;;;;;;22.75;10.77;;;;;;;;;;4979400;28;20046;-66
2021/12/22 00:16:02;;;;;;;24.20;9.60;;;;;;;;;;4973815;28;20582;-66
2021/12/22 00:18:33;;;;;;;23.35;10.50;;;;;;;;;;4982463;28;20050;-66
2021/12/22 00:21:01;;;;;;;19.77;9.90;;;;;;;;;;4983224;28;20057;-66
2021/12/22 00:23:32;;;;;;;20.00;9.93;;;;;;;;;;4990040;28;20050;-66
2021/12/22 00:26:02;;;;;;;18.63;8.95;;;;;;;;;;4979013;28;20518;-66
2021/12/22 00:28:40;;;;;;;21.13;9.75;;;;;;;;;;4983038;28;20070;-66
2021/12/22 00:31:12;;;;;;;25.05;9.00;;;;;;;;;;4981737;28;20184;-66
2021/12/22 00:33:47;;;;;;;21.63;10.55;;;;;;;;;;4978099;28;20403;-66
2021/12/22 00:36:15;;;;;;;21.77;10.07;;;;;;;;;;4979999;28;20043;-66
2021/12/22 00:38:43;;;;;;;18.70;8.82;;;;;;;;;;4980651;28;20141;-66
2021/12/22 00:41:13;;;;;;;23.25;10.00;;;;;;;;;;4978487;28;20403;-66
2021/12/22 00:43:42;;;;;;;30.13;9.38;;;;;;;;;;4983229;28;20151;-66
2021/12/22 00:46:12;;;;;;;18.38;9.55;;;;;;;;;;4983796;28;20050;-66
2021/12/22 00:48:41;;;;;;;28.00;9.80;;;;;;;;;;4986901;28;20109;-66
2021/12/22 00:51:09;;;;;;;27.10;9.02;;;;;;;;;;4975740;28;20085;-66
2021/12/22 00:53:37;;;;;;;22.15;10.98;;;;;;;;;;4983325;28;20529;-66
2021/12/22 00:56:07;;;;;;;28.95;10.48;;;;;;;;;;4981860;28;20047;-66
2021/12/22 00:58:37;;;;;;;24.70;8.55;;;;;;;;;;4986251;28;20125;-66
2021/12/22 01:01:08;;;;;;;26.95;10.13;;;;;;;;;;4984554;28;20138;-66
2021/12/22 01:03:37;;;;;;;19.48;8.40;;;;;;;;;;4981228;28;20493;-66
2021/12/22 01:06:08;;;;;;;21.58;8.82;;;;;;;;;;4979318;28;20047;-66
2021/12/22 01:08:36;;;;;;;20.00;9.05;;;;;;;;;;4988697;28;20077;-66
2021/12/22 01:11:08;;;;;;;20.45;9.90;;;;;;;;;;4977462;28;20363;-66
2021/12/22 01:13:37;;;;;;;21.67;9.00;;;;;;;;;;4977055;28;20109;-66
2021/12/22 01:16:09;;;;;;;22.27;7.80;;;;;;;;;;4980640;28;20142;-66
2021/12/22 01:18:37;;;;;;;25.30;9.60;;;;;;;;;;4987946;28;20101;-66
2021/12/22 01:21:13;;;;;;;21.90;10.40;;;;;;;;;;4979633;28;20074;-66
2021/12/22 01:23:58;;;;;;;23.35;8.13;;;;;;;;;;4977630;28;20042;-66
2021/12/22 01:26:27;;;;;;;29.65;10.80;;;;;;;;;;4986214;28;20124;-66
2021/12/22 01:28:57;;;;;;;26.33;10.85;;;;;;;;;;4987248;28;20046;-66
2021/12/22 01:31:25;;;;;;;16.38;9.18;;;;;;;;;;4980251;28;20121;-66
2021/12/22 01:33:53;;;;;;;21.83;8.90;;;;;;;;;;4980642;28;20060;-66
2021/12/22 01:36:22;;;;;;;23.23;8.88;;;;;;;;;;4978849;28;20046;-66
2021/12/22 01:38:50;;;;;;;19.23;9.48;;;;;;;;;;4988476;28;20549;-66
2021/12/22 01:41:18;;;;;;;19.40;9.38;;;;;;;;;;4982941;28;20074;-66
2021/12/22 01:43:48;;;;;;;19.00;8.30;;;;;;;;;;4983255;28;20137;-66
2021/12/22 01:49:10;;;;;;;18.52;8.75;;;;;;;;;;4984109;28;20455;-66
2021/12/22 01:49:35;;;;;;;19.23;9.23;;;;;;;;;;4986409;28;20133;-66
2021/12/22 01:52:05;;;;;;;20.05;8.77;;;;;;;;;;4984309;28;20108;-66
2021/12/22 01:54:34;;;;;;;20.88;9.25;;;;;;;;;;4981427;28;20499;-66
2021/12/22 01:57:08;;;;;;;20.70;8.43;;;;;;;;;;4979931;28;20134;-66
2021/12/22 01:59:37;;;;;;;20.88;9.73;;;;;;;;;;4985871;28;20050;-66
2021/12/22 02:02:09;;;;;;;20.60;8.40;;;;;;;;;;4982915;28;20141;-66
2021/12/22 02:04:38;;;;;;;19.73;8.70;;;;;;;;;;4982542;28;20387;-66
2021/12/22 02:07:10;;;;;;;24.58;9.70;;;;;;;;;;4976144;28;20060;-66
2021/12/22 02:09:59;;;;;;;24.67;8.85;;;;;;;;;;4975222;28;20506;-66
2021/12/22 02:12:30;;;;;;;22.02;8.80;;;;;;;;;;4982048;28;20589;-66
2021/12/22 02:14:59;;;;;;;22.52;9.27;;;;;;;;;;4987733;28;20081;-66
2021/12/22 02:17:29;;;;;;;19.48;8.65;;;;;;;;;;4982035;28;20137;-66
2021/12/22 02:19:58;;;;;;;22.88;9.88;;;;;;;;;;4981549;28;20582;-66
2021/12/22 02:22:27;;;;;;;20.85;8.13;;;;;;;;;;4985989;28;20113;-66
2021/12/22 02:25:00;;;;;;;22.65;8.18;;;;;;;;;;4977316;28;20069;-66
2021/12/22 02:27:33;;;;;;;19.17;7.07;;;;;;;;;;4987569;28;20161;-66
2021/12/22 02:30:05;;;;;;;23.83;9.43;;;;;;;;;;4980913;28;20574;-66
2021/12/22 02:35:27;;;;;;;17.23;7.50;;;;;;;;;;4976270;28;20148;-66
2021/12/22 02:37:55;;;;;;;17.92;7.75;;;;;;;;;;4987391;28;20129;-66
2021/12/22 02:40:27;;;;;;;22.58;8.30;;;;;;;;;;4976395;28;20479;-67
2021/12/22 02:43:04;;;;;;;20.52;8.48;;;;;;;;;;4985522;28;20060;-67
2021/12/22 02:45:34;;;;;;;19.17;8.25;;;;;;;;;;4975965;28;20074;-67
2021/12/22 02:48:02;;;;;;;13.35;7.43;;;;;;;;;;4975453;28;20529;-66
2021/12/22 02:50:36;;;;;;;19.65;8.30;;;;;;;;;;4980335;28;20086;-66
2021/12/22 02:53:08;;;;;;;12.65;7.55;;;;;;;;;;4982392;28;20113;-66
2021/12/22 02:55:47;;;;;;;19.70;8.70;;;;;;;;;;4972650;28;20093;-66
2021/12/22 02:58:23;;;;;;;15.70;7.95;;;;;;;;;;4974290;28;20147;-66
2021/12/22 03:01:06;;;;;;;18.90;8.40;;;;;;;;;;4978816;28;20042;-66
2021/12/22 03:03:51;;;;;;;21.77;7.68;;;;;;;;;;4979153;28;20477;-66
2021/12/22 03:06:28;;;;;;;16.08;8.43;;;;;;;;;;4987740;28;20545;-66
2021/12/22 03:08:56;;;;;;;18.35;6.72;;;;;;;;;;4975950;28;20478;-66
2021/12/22 03:11:24;;;;;;;20.52;8.05;;;;;;;;;;4982606;28;20074;-66
2021/12/22 03:13:53;;;;;;;18.10;7.20;;;;;;;;;;4985300;28;20169;-66
2021/12/22 03:16:22;;;;;;;19.63;8.45;;;;;;;;;;4974982;28;20586;-66
2021/12/22 03:18:50;;;;;;;15.25;7.07;;;;;;;;;;4977393;28;20539;-66
2021/12/22 03:21:21;;;;;;;20.10;7.90;;;;;;;;;;4975727;28;20490;-66
2021/12/22 03:23:53;;;;;;;17.35;8.85;;;;;;;;;;4984866;28;20081;-66
2021/12/22 03:26:23;;;;;;;14.50;7.55;;;;;;;;;;4980268;28;20494;-67
2021/12/22 03:28:52;;;;;;;15.15;7.57;;;;;;;;;;4970470;28;20502;-66
2021/12/22 03:31:20;;;;;;;13.82;7.63;;;;;;;;;;4985055;28;20073;-66
2021/12/22 03:33:56;;;;;;;11.27;5.28;;;;;;;;;;1564029;28;10022600;-68
2021/12/22 03:36:24;;;;;;;18.33;7.40;;;;;;;;;;3955749;28;10001118;-66
2021/12/22 03:38:54;;;;;;;16.48;6.97;;;;;;;;;;4983314;28;20558;-66
2021/12/22 03:41:22;;;;;;;17.02;6.50;;;;;;;;;;4982192;28;20050;-66
2021/12/22 03:43:51;;;;;;;14.00;7.85;;;;;;;;;;4988571;28;20508;-66
2021/12/22 03:46:20;;;;;;;20.58;7.88;;;;;;;;;;4983371;28;20830;-66
2021/12/22 03:48:49;;;;;;;19.13;7.88;;;;;;;;;;4981296;28;20129;-66
2021/12/22 03:51:20;;;;;;;17.88;7.45;;;;;;;;;;4984554;28;20074;-66
2021/12/22 03:53:49;;;;;;;15.60;7.47;;;;;;;;;;4987192;28;20697;-66
2021/12/22 03:56:18;;;;;;;14.88;8.13;;;;;;;;;;4985853;28;20089;-67
2021/12/22 03:58:47;;;;;;;15.52;7.55;;;;;;;;;;4982367;28;20055;-67
2021/12/22 04:01:15;;;;;;;17.73;8.48;;;;;;;;;;4978813;28;20511;-67
2021/12/22 04:03:47;;;;;;;12.95;7.50;;;;;;;;;;4981867;28;20050;-67
2021/12/22 04:06:15;;;;;;;12.52;7.45;;;;;;;;;;4983764;28;20141;-67
2021/12/22 04:08:44;;;;;;;14.55;7.63;;;;;;;;;;4987831;28;20130;-67
2021/12/22 04:11:16;;;;;;;16.02;7.30;;;;;;;;;;4988394;28;20046;-67
2021/12/22 04:13:46;;;;;;;15.70;8.02;;;;;;;;;;4989802;28;20499;-67
2021/12/22 04:16:14;;;;;;;16.92;7.05;;;;;;;;;;4979507;28;20141;-67
2021/12/22 04:18:42;;;;;;;14.60;6.65;;;;;;;;;;4977567;28;20046;-67
2021/12/22 04:21:11;;;;;;;15.05;7.32;;;;;;;;;;4983278;28;20137;-67
2021/12/22 04:23:39;;;;;;;19.27;9.00;;;;;;;;;;4978428;28;20143;-67
2021/12/22 04:26:07;;;;;;;20.17;8.75;;;;;;;;;;4978485;28;20534;-67
2021/12/22 04:28:36;;;;;;;13.82;7.57;;;;;;;;;;4980657;28;20546;-67
2021/12/22 04:31:08;;;;;;;14.77;7.65;;;;;;;;;;4983947;28;20057;-67
2021/12/22 04:33:36;;;;;;;15.13;7.47;;;;;;;;;;4977590;28;20061;-67
2021/12/22 04:36:09;;;;;;;18.25;8.07;;;;;;;;;;4980427;28;20141;-67
2021/12/22 04:38:37;;;;;;;19.23;7.13;;;;;;;;;;4989655;28;20483;-67
2021/12/22 04:41:08;;;;;;;16.95;6.85;;;;;;;;;;4986994;28;20086;-67
2021/12/22 04:43:36;;;;;;;14.32;7.60;;;;;;;;;;4983248;28;20145;-67
2021/12/22 04:46:09;;;;;;;13.50;8.02;;;;;;;;;;4978050;28;20052;-67
2021/12/22 04:48:37;;;;;;;17.13;8.07;;;;;;;;;;4973345;28;20051;-67
2021/12/22 04:51:13;;;;;;;15.23;6.93;;;;;;;;;;4976596;28;20626;-67
2021/12/22 04:53:51;;;;;;;17.13;7.72;;;;;;;;;;4973438;28;20097;-67
2021/12/22 04:56:19;;;;;;;14.93;6.18;;;;;;;;;;4976764;28;20042;-67
2021/12/22 04:58:47;;;;;;;23.15;7.68;;;;;;;;;;4983656;28;20142;-67
2021/12/22 05:01:17;;;;;;;19.75;8.38;;;;;;;;;;4976039;28;20129;-67
2021/12/22 05:03:46;;;;;;;15.90;7.65;;;;;;;;;;4989146;28;20046;-67
2021/12/22 05:06:14;;;;;;;18.08;8.32;;;;;;;;;;4985053;28;20053;-67
2021/12/22 05:08:42;;;;;;;14.25;7.57;;;;;;;;;;4978606;28;20049;-67
2021/12/22 05:11:10;;;;;;;19.92;7.63;;;;;;;;;;4984783;28;20450;-67
2021/12/22 05:13:41;;;;;;;16.58;7.90;;;;;;;;;;4990705;28;20074;-67
2021/12/22 05:16:16;;;;;;;20.05;7.78;;;;;;;;;;4978563;28;20189;-67
2021/12/22 05:18:52;;;;;;;16.35;8.07;;;;;;;;;;4989920;28;20046;-67
2021/12/22 05:21:21;;;;;;;15.13;7.03;;;;;;;;;;4988433;28;20050;-67
2021/12/22 05:23:49;;;;;;;16.70;8.68;;;;;;;;;;4987565;28;20525;-67
2021/12/22 05:26:19;;;;;;;24.77;8.20;;;;;;;;;;4976773;28;20078;-67
2021/12/22 05:28:48;;;;;;;16.30;7.78;;;;;;;;;;4972406;28;20141;-67
2021/12/22 05:31:16;;;;;;;18.75;8.57;;;;;;;;;;4980190;28;20132;-67
2021/12/22 05:33:44;;;;;;;15.25;8.57;;;;;;;;;;4978856;28;20125;-67
2021/12/22 05:36:14;;;;;;;14.05;8.13;;;;;;;;;;4984789;28;20085;-67
2021/12/22 05:38:42;;;;;;;15.02;7.25;;;;;;;;;;4983253;28;20442;-67
2021/12/22 05:41:10;;;;;;;18.05;8.80;;;;;;;;;;4991421;28;20141;-67
2021/12/22 05:43:39;;;;;;;21.63;8.65;;;;;;;;;;4988034;28;20064;-67
2021/12/22 05:46:07;;;;;;;19.40;8.23;;;;;;;;;;4982975;28;20122;-67
2021/12/22 05:48:35;;;;;;;16.38;8.57;;;;;;;;;;4971745;28;20162;-67
2021/12/22 05:51:07;;;;;;;21.08;9.02;;;;;;;;;;4975520;28;20129;-67
2021/12/22 05:53:37;;;;;;;22.42;8.52;;;;;;;;;;4983725;28;20050;-67
2021/12/22 05:56:08;;;;;;;18.48;9.15;;;;;;;;;;4980492;28;20129;-67
2021/12/22 05:58:37;;;;;;;20.35;9.43;;;;;;;;;;4978979;28;20133;-67
2021/12/22 06:01:08;;;;;;;19.90;7.35;;;;;;;;;;4976093;28;20451;-67
2021/12/22 06:03:36;;;;;;;18.92;9.20;;;;;;;;;;4981015;28;20094;-67
2021/12/22 06:06:07;;;;;;;21.35;9.15;;;;;;;;;;4974101;28;20082;-67
2021/12/22 06:08:37;;;;;;;12.80;7.30;;;;;;;;;;4982144;28;20582;-67
2021/12/22 06:11:05;;;;;;;15.27;7.88;;;;;;;;;;4974052;28;20054;-67
2021/12/22 06:13:33;;;;;;;16.75;7.80;;;;;;;;;;4987370;28;20085;-67
2021/12/22 06:16:04;;;;;;;20.67;8.50;;;;;;;;;;4974334;28;20589;-67
2021/12/22 06:18:34;;;;;;;22.10;8.68;;;;;;;;;;4978088;28;20046;-67
2021/12/22 06:21:05;;;;;;;15.63;8.20;;;;;;;;;;4978472;28;20217;-67
2021/12/22 06:23:33;;;;;;;18.52;7.97;;;;;;;;;;4985752;28;20141;-67
2021/12/22 06:26:06;;;;;;;16.98;7.30;;;;;;;;;;4982775;28;20482;-67
2021/12/22 06:28:34;;;;;;;14.95;7.10;;;;;;;;;;4972257;28;20086;-67
2021/12/22 06:31:05;;;;;;;15.52;8.70;;;;;;;;;;4979669;28;20057;-67
2021/12/22 06:33:33;;;;;;;16.80;8.40;;;;;;;;;;4986022;28;20089;-67
2021/12/22 06:36:01;;;;;;;19.48;9.10;;;;;;;;;;4980389;28;20053;-67
2021/12/22 06:38:32;;;;;;;26.70;10.23;;;;;;;;;;4984216;28;20494;-67
2021/12/22 06:41:02;;;;;;;25.38;9.40;;;;;;;;;;4980751;28;20043;-67
2021/12/22 06:43:34;;;;;;;21.73;8.57;;;;;;;;;;4981777;28;20541;-67
2021/12/22 06:46:04;;;;;;;18.25;8.82;;;;;;;;;;4982005;28;20046;-67
2021/12/22 06:48:32;;;;;;;17.42;7.95;;;;;;;;;;4977592;28;20081;-67
2021/12/22 06:51:01;;;;;;;17.50;8.15;;;;;;;;;;4987941;28;20076;-67
2021/12/22 06:53:34;;;;;;;21.20;8.23;;;;;;;;;;4980844;28;20064;-67
2021/12/22 06:56:05;;;;;;;23.60;9.68;;;;;;;;;;4978494;28;20532;-67
2021/12/22 06:58:34;;;;;;;20.27;8.85;;;;;;;;;;4986855;28;20565;-67
2021/12/22 07:01:05;;;;;;;16.33;7.85;;;;;;;;;;4977844;28;20197;-67
2021/12/22 07:03:34;;;;;;;17.33;8.30;;;;;;;;;;4983192;28;20054;-67
2021/12/22 07:06:05;;;;;;;19.17;9.05;;;;;;;;;;4977614;28;20487;-67
2021/12/22 07:08:34;;;;;;;20.92;8.95;;;;;;;;;;4975348;28;20129;-67
2021/12/22 07:11:04;;;;;;;16.70;8.07;;;;;;;;;;4972246;28;20157;-67
2021/12/22 07:13:34;;;;;;;15.93;8.65;;;;;;;;;;4986896;28;20081;-67
2021/12/22 07:16:05;;;;;;;25.73;8.88;;;;;;;;;;4985739;28;20050;-67
2021/12/22 07:18:34;;;;;;;19.55;8.10;;;;;;;;;;4986781;28;20051;-67
2021/12/22 07:21:06;;;;;;;18.30;8.25;;;;;;;;;;4987662;28;20058;-67
2021/12/22 07:23:34;;;;;;;19.48;8.73;;;;;;;;;;4974732;28;20129;-67
2021/12/22 07:26:05;;;;;;;18.98;8.15;;;;;;;;;;4979254;28;20077;-67
2021/12/22 07:28:35;;;;;;;20.70;9.02;;;;;;;;;;4976877;28;20058;-67
2021/12/22 07:31:06;;;;;;;23.20;10.00;;;;;;;;;;4984036;28;20072;-67
2021/12/22 07:33:35;;;;;;;19.85;8.90;;;;;;;;;;4982972;28;20046;-66
2021/12/22 07:36:06;;;;;;;19.13;8.65;;;;;;;;;;4976820;28;20050;-67
2021/12/22 07:38:36;;;;;;;22.35;7.95;;;;;;;;;;4975854;28;20893;-67
2021/12/22 07:41:09;;;;;;;24.35;9.13;;;;;;;;;;4978622;28;20318;-66
2021/12/22 07:43:39;;;;;;;18.38;9.23;;;;;;;;;;4980564;28;20589;-65
2021/12/22 07:46:08;;;;;;;27.13;10.70;;;;;;;;;;4978187;28;20149;-65
2021/12/22 07:48:37;;;;;;;24.05;10.10;;;;;;;;;;4983000;28;20462;-65
2021/12/22 07:51:08;;;;;;;16.58;8.77;;;;;;;;;;4987759;28;20064;-66
2021/12/22 07:53:37;;;;;;;20.42;8.68;;;;;;;;;;4980933;28;20058;-65
2021/12/22 07:56:08;;;;;;;23.70;10.27;;;;;;;;;;4985642;28;20219;-65
2021/12/22 07:58:36;;;;;;;24.30;10.45;;;;;;;;;;4987031;28;20509;-65
2021/12/22 08:01:10;;;;;;;25.80;11.25;;;;;;;;;;4984681;28;20124;-65
2021/12/22 08:03:38;;;;;;;24.48;10.32;;;;;;;;;;4983241;28;20054;-65
2021/12/22 08:06:12;;;;;;;24.85;11.10;;;;;;;;;;4980183;28;20054;-65
2021/12/22 08:08:40;;;;;;;29.20;9.50;;;;;;;;;;4989865;28;20054;-65
2021/12/22 08:11:09;;;;;;;22.67;10.15;;;;;;;;;;4986809;28;20086;-65
2021/12/22 08:13:37;;;;;;;26.33;11.73;;;;;;;;;;4981653;28;20535;-65
2021/12/22 08:16:06;;;;;;;22.98;9.27;;;;;;;;;;4984722;28;20058;-65
2021/12/22 08:18:36;;;;;;;25.88;10.63;;;;;;;;;;4981498;28;20149;-65
2021/12/22 08:21:07;;;;;;;29.13;11.20;;;;;;;;;;4984786;28;20058;-66
2021/12/22 08:23:39;;;;;;;27.77;10.00;;;;;;;;;;4983854;28;20141;-65
2021/12/22 08:26:08;;;;;;;30.83;10.27;;;;;;;;;;4984831;28;20052;-65
2021/12/22 08:28:36;;;;;;;30.17;11.02;;;;;;;;;;4984472;28;20058;-65
2021/12/22 08:31:08;;;;;;;28.08;11.27;;;;;;;;;;4980199;28;20117;-65
2021/12/22 08:33:43;;;;;;;31.40;11.18;;;;;;;;;;4980935;28;20139;-65
2021/12/22 08:39:00;;;;;;;29.77;12.15;;;;;;;;;;4979513;28;20042;-65
2021/12/22 08:41:31;;;;;;;28.38;10.52;;;;;;;;;;4979692;28;20076;-65
2021/12/22 08:44:00;;;;;;;27.63;10.88;;;;;;;;;;4981985;28;20050;-66
2021/12/22 08:46:30;;;;;;;21.27;9.93;;;;;;;;;;4978716;28;20046;-65
2021/12/22 08:49:00;;;;;;;26.77;10.40;;;;;;;;;;4978490;28;20053;-65
2021/12/22 08:51:29;;;;;;;23.65;9.70;;;;;;;;;;4977444;28;20057;-65
2021/12/22 08:54:00;;;;;;;24.27;9.77;;;;;;;;;;4977591;28;20151;-67
2021/12/22 08:56:28;;;;;;;27.67;11.68;;;;;;;;;;4976267;28;20133;-65
2021/12/22 08:58:57;;;;;;;29.63;10.15;;;;;;;;;;4981477;28;20057;-66
2021/12/22 09:01:26;;;;;;;28.95;12.02;;;;;;;;;;4970790;28;20046;-66
2021/12/22 09:03:56;;;;;;;29.42;11.75;;;;;;;;;;4973878;28;20049;-66
2021/12/22 09:06:26;;;;;;;25.70;9.63;;;;;;;;;;4980641;28;20047;-66
2021/12/22 09:08:54;;;;;;;30.92;11.88;;;;;;;;;;4978786;28;20581;-66
2021/12/22 09:11:24;;;;;;;26.63;11.05;;;;;;;;;;4976546;28;20042;-66
2021/12/22 09:13:52;;;;;;;27.60;11.63;;;;;;;;;;4976697;28;20051;-66
2021/12/22 09:16:21;;;;;;;28.35;11.70;;;;;;;;;;4978897;28;20543;-66
2021/12/22 09:18:50;;;;;;;29.45;12.07;;;;;;;;;;4976410;28;20043;-66
2021/12/22 09:21:18;;;;;;;25.05;10.95;;;;;;;;;;4983343;28;20046;-66
2021/12/22 09:23:48;;;;;;;28.23;10.75;;;;;;;;;;4975085;28;20154;-66
2021/12/22 09:26:17;;;;;;;28.63;11.13;;;;;;;;;;4974841;28;20082;-66
2021/12/22 09:28:45;;;;;;;27.60;11.63;;;;;;;;;;4977289;28;20059;-66
2021/12/22 09:31:13;;;;;;;26.80;11.48;;;;;;;;;;4970151;28;20109;-66
2021/12/22 09:33:42;;;;;;;33.17;12.48;;;;;;;;;;4973073;28;20046;-66
2021/12/22 09:36:12;;;;;;;29.67;12.40;;;;;;;;;;4977542;28;20050;-66
2021/12/22 09:38:41;;;;;;;28.65;11.68;;;;;;;;;;4970911;28;20141;-67
2021/12/22 09:41:11;;;;;;;33.60;13.00;;;;;;;;;;4978447;28;20052;-67
2021/12/22 09:43:40;;;;;;;23.02;10.55;;;;;;;;;;4974315;28;20203;-67
2021/12/22 09:46:12;;;;;;;25.30;11.00;;;;;;;;;;4978656;28;20054;-67
2021/12/22 09:48:51;;;;;;;28.63;12.65;;;;;;;;;;4973534;28;20059;-67
2021/12/22 09:54:10;;;;;;;27.50;10.52;;;;;;;;;;4984641;28;20058;-67
2021/12/22 09:56:41;;;;;;;31.75;11.95;;;;;;;;;;4981107;28;20649;-66
2021/12/22 09:59:12;;;;;;;29.40;10.15;;;;;;;;;;4982677;28;20113;-66
2021/12/22 10:01:41;;;;;;;26.95;10.63;;;;;;;;;;4973598;28;20085;-66
2021/12/22 10:04:10;;;;;;;23.92;11.73;;;;;;;;;;4974979;28;20049;-67
2021/12/22 10:06:38;;;;;;;28.33;11.20;;;;;;;;;;4975568;28;20046;-67
2021/12/22 10:09:07;;;;;;;30.98;12.27;;;;;;;;;;4970644;28;20065;-67
2021/12/22 10:11:43;;;;;;;27.95;11.50;;;;;;;;;;4967522;28;20101;-67
2021/12/22 10:14:24;;;;;;;27.77;10.20;;;;;;;;;;4976570;28;20469;-67
2021/12/22 10:16:53;;;;;;;29.25;12.90;;;;;;;;;;4974831;28;20053;-67
2021/12/22 10:19:25;;;;;;;27.30;11.45;;;;;;;;;;4975583;28;20053;-67
2021/12/22 10:21:56;;;;;;;24.42;10.73;;;;;;;;;;4983203;28;20042;-67
2021/12/22 10:24:35;;;;;;;28.08;10.45;;;;;;;;;;4980058;28;20571;-67
2021/12/22 10:27:05;;;;;;;29.13;11.82;;;;;;;;;;4974224;28;20058;-67
2021/12/22 10:29:35;;;;;;;24.42;10.60;;;;;;;;;;4985796;28;20062;-67
2021/12/22 10:32:08;;;;;;;34.50;11.98;;;;;;;;;;4974724;28;20508;-66
2021/12/22 10:34:37;;;;;;;28.55;11.15;;;;;;;;;;4982449;28;20165;-66
2021/12/22 10:37:05;;;;;;;24.33;9.68;;;;;;;;;;4977340;28;20058;-66
2021/12/22 10:39:34;;;;;;;29.70;11.55;;;;;;;;;;4980135;28;20525;-67
2021/12/22 10:42:04;;;;;;;28.17;11.10;;;;;;;;;;4980812;28;20050;-67
2021/12/22 10:44:37;;;;;;;23.33;9.63;;;;;;;;;;4972678;28;20475;-67
2021/12/22 10:47:18;;;;;;;24.73;10.85;;;;;;;;;;4973000;28;20125;-67
2021/12/22 10:50:00;;;;;;;21.35;10.10;;;;;;;;;;4973565;28;20136;-67
2021/12/22 10:52:30;;;;;;;29.60;11.70;;;;;;;;;;4977810;28;20062;-67
2021/12/22 10:55:08;;;;;;;22.98;10.85;;;;;;;;;;4968592;28;20250;-67
2021/12/22 10:57:41;;;;;;;23.75;10.38;;;;;;;;;;4971132;28;21039;-67
2021/12/22 11:00:19;;;;;;;21.98;11.13;;;;;;;;;;4972723;28;20058;-67
2021/12/22 11:03:02;;;;;;;26.35;10.77;;;;;;;;;;4972192;28;20134;-67
2021/12/22 11:05:30;;;;;;;24.48;10.30;;;;;;;;;;4971762;28;20662;-67
2021/12/22 11:07:59;;;;;;;24.58;10.38;;;;;;;;;;4970564;28;20158;-67
2021/12/22 11:10:29;;;;;;;25.17;10.55;;;;;;;;;;4972143;28;20470;-67
2021/12/22 11:13:05;;;;;;;30.80;11.23;;;;;;;;;;4973739;28;20109;-67
2021/12/22 11:15:42;;;;;;;22.80;10.18;;;;;;;;;;4969014;28;20104;-67
2021/12/22 11:18:10;;;;;;;30.70;10.77;;;;;;;;;;4974392;28;20553;-67
2021/12/22 11:20:46;;;;;;;25.10;10.70;;;;;;;;;;4970423;28;20868;-67
2021/12/22 11:23:14;;;;;;;26.67;10.68;;;;;;;;;;4974673;28;20128;-67
2021/12/22 11:25:43;;;;;;;26.15;11.52;;;;;;;;;;4973641;28;20506;-67
2021/12/22 11:28:11;;;;;;;30.40;12.02;;;;;;;;;;4968003;28;20101;-67
2021/12/22 11:30:41;;;;;;;25.33;10.82;;;;;;;;;;4973113;28;20189;-67
2021/12/22 11:33:10;;;;;;;26.77;11.45;;;;;;;;;;4970672;28;20069;-67
2021/12/22 11:35:41;;;;;;;24.17;10.55;;;;;;;;;;4971986;28;20073;-67
2021/12/22 11:38:09;;;;;;;28.27;11.70;;;;;;;;;;4972778;28;20414;-67
2021/12/22 11:40:38;;;;;;;26.73;10.95;;;;;;;;;;4968808;28;20592;-67
2021/12/22 11:43:06;;;;;;;26.70;10.57;;;;;;;;;;4971278;28;20058;-67
2021/12/22 11:45:37;;;;;;;27.08;11.00;;;;;;;;;;4971972;28;20042;-67
2021/12/22 11:48:07;;;;;;;29.08;10.85;;;;;;;;;;4978183;28;20055;-67
2021/12/22 11:50:36;;;;;;;27.55;10.90;;;;;;;;;;4983881;28;20628;-67
2021/12/22 11:53:06;;;;;;;27.13;10.95;;;;;;;;;;4979184;28;20132;-67
2021/12/22 11:55:38;;;;;;;23.92;10.75;;;;;;;;;;4978613;28;20362;-67
2021/12/22 11:58:17;;;;;;;28.73;10.45;;;;;;;;;;4985656;28;20141;-67
2021/12/22 12:00:46;;;;;;;26.40;11.00;;;;;;;;;;4985033;28;20062;-67
2021/12/22 12:03:24;;;;;;;25.73;10.98;;;;;;;;;;4977859;28;21223;-67
2021/12/22 12:06:06;;;;;;;30.77;9.75;;;;;;;;;;4978986;28;20082;-67
2021/12/22 12:08:36;;;;;;;24.60;11.13;;;;;;;;;;4978082;28;20042;-67
2021/12/22 12:11:07;;;;;;;32.90;11.88;;;;;;;;;;4977961;28;20065;-67
2021/12/22 12:13:41;;;;;;;25.98;12.25;;;;;;;;;;4978264;28;20474;-67
2021/12/22 12:22:22;;;;;;;34.55;9.40;;;;;;;;;;5048815;27;20694;-65
2021/12/22 12:25:00;;;;;;;28.42;10.18;;;;;;;;;;5042442;28;20293;-65
2021/12/22 12:27:37;;;;;;;24.77;9.85;;;;;;;;;;5042585;28;20130;-66
2021/12/22 12:30:07;;;;;;;26.02;10.55;;;;;;;;;;5042117;28;20131;-67
2021/12/22 12:32:54;;;;;;;23.92;9.32;;;;;;;;;;5044586;28;20049;-67
2021/12/22 12:35:26;;;;;;;22.23;10.73;;;;;;;;;;5046611;28;20124;-67
2021/12/22 12:37:59;;;;;;;24.73;11.45;;;;;;;;;;5038916;28;20118;-67
2021/12/22 12:40:42;;;;;;;30.20;11.27;;;;;;;;;;5036733;28;20087;-67
2021/12/22 12:43:11;;;;;;;27.15;12.02;;;;;;;;;;5036322;28;20493;-67
2021/12/22 12:45:43;;;;;;;25.90;12.30;;;;;;;;;;5033106;28;20120;-66
2021/12/22 12:48:28;;;;;;;28.40;11.73;;;;;;;;;;5045618;28;20103;-66
2021/12/22 12:51:15;;;;;;;25.60;10.85;;;;;;;;;;5042894;28;20072;-66
2021/12/22 12:53:46;;;;;;;28.73;11.45;;;;;;;;;;5041197;28;20134;-66
2021/12/22 12:56:14;;;;;;;24.13;10.10;;;;;;;;;;5035509;28;20093;-66
2021/12/22 12:58:53;;;;;;;25.67;10.70;;;;;;;;;;5040400;28;20053;-67
2021/12/22 13:01:50;;;;;;;28.17;11.27;;;;;;;;;;5043004;28;20074;-67
2021/12/22 13:04:20;;;;;;;21.50;9.93;;;;;;;;;;5041788;28;20472;-67
2021/12/22 13:06:49;;;;;;;24.35;9.98;;;;;;;;;;5042073;28;20068;-67
2021/12/22 13:09:26;;;;;;;24.63;9.88;;;;;;;;;;5042478;28;20045;-67
2021/12/22 13:11:58;;;;;;;28.98;9.35;;;;;;;;;;5029532;28;20997;-67
2021/12/22 13:17:24;;;;;;;25.40;9.95;;;;;;;;;;4996735;28;20050;-66
2021/12/22 13:19:55;;;;;;;25.48;10.68;;;;;;;;;;5019536;28;20054;-67
2021/12/22 13:22:25;;;;;;;33.08;11.48;;;;;;;;;;5019467;28;20047;-66
2021/12/22 13:25:07;;;;;;;23.95;10.38;;;;;;;;;;5020631;28;20100;-66
2021/12/22 13:27:36;;;;;;;23.05;9.73;;;;;;;;;;5021525;28;20054;-66
2021/12/22 13:30:09;;;;;;;23.48;9.45;;;;;;;;;;5019219;28;20038;-66
2021/12/22 13:32:38;;;;;;;19.92;10.25;;;;;;;;;;5012770;28;20050;-66
2021/12/22 13:35:07;;;;;;;22.60;9.85;;;;;;;;;;5004112;28;20042;-66
2021/12/22 13:37:49;;;;;;;20.77;9.88;;;;;;;;;;5006229;28;20104;-66
2021/12/22 13:43:20;;;;;;;26.75;9.98;;;;;;;;;;5083577;27;20435;-66
2021/12/22 13:45:49;;;;;;;22.77;9.57;;;;;;;;;;5075347;28;20055;-66
2021/12/22 13:48:19;;;;;;;22.38;9.48;;;;;;;;;;5077024;28;20052;-66
2021/12/22 13:50:48;;;;;;;23.00;9.40;;;;;;;;;;5070469;27;20055;-66
2021/12/22 13:53:17;;;;;;;21.45;10.10;;;;;;;;;;5053936;28;20431;-66
2021/12/22 13:55:46;;;;;;;25.52;9.23;;;;;;;;;;5055218;28;20135;-66
2021/12/22 13:58:32;;;;;;;23.27;10.10;;;;;;;;;;5060320;28;20096;-66
2021/12/22 14:01:14;;;;;;;23.80;10.40;;;;;;;;;;5047802;28;20151;-66
2021/12/22 14:03:44;;;;;;;25.50;9.00;;;;;;;;;;5040695;28;20041;-66
2021/12/22 14:06:14;;;;;;;21.55;9.32;;;;;;;;;;5035967;28;20049;-66
2021/12/22 14:08:43;;;;;;;21.80;9.23;;;;;;;;;;5041330;28;20080;-66
2021/12/22 14:11:33;;;;;;;20.50;9.68;;;;;;;;;;5038170;28;20139;-66
2021/12/22 14:14:35;;;;;;;28.52;10.45;;;;;;;;;;5042364;28;20052;-66
2021/12/22 14:17:13;;;;;;;30.30;10.52;;;;;;;;;;5032900;28;20077;-66
2021/12/22 14:19:43;;;;;;;22.23;9.63;;;;;;;;;;5033983;28;20139;-66
2021/12/22 14:22:14;;;;;;;23.15;10.10;;;;;;;;;;5037592;28;20159;-66
2021/12/22 14:24:43;;;;;;;23.67;8.95;;;;;;;;;;5032268;28;20049;-66
2021/12/22 14:27:14;;;;;;;18.90;9.05;;;;;;;;;;5031874;28;20489;-68
2021/12/22 14:29:50;;;;;;;22.77;9.27;;;;;;;;;;5040875;28;20076;-68
2021/12/22 14:32:28;;;;;;;25.70;9.73;;;;;;;;;;5036345;28;20176;-68
2021/12/22 14:35:01;;;;;;;18.45;8.98;;;;;;;;;;5041016;28;20137;-68
2021/12/22 14:37:30;;;;;;;23.48;9.00;;;;;;;;;;5039606;28;20049;-68
2021/12/22 14:39:59;;;;;;;16.55;8.50;;;;;;;;;;5038366;28;20458;-68
2021/12/22 14:42:28;;;;;;;17.52;8.27;;;;;;;;;;5030661;28;20076;-68
2021/12/22 14:45:15;;;;;;;18.85;8.27;;;;;;;;;;5035510;28;20053;-68
2021/12/22 14:47:45;;;;;;;19.27;7.75;;;;;;;;;;5037063;28;20456;-68
2021/12/22 14:50:14;;;;;;;22.08;9.73;;;;;;;;;;5039021;28;20088;-68
2021/12/22 14:52:56;;;;;;;19.48;8.85;;;;;;;;;;5040985;28;20045;-69
2021/12/22 14:55:38;;;;;;;18.40;8.10;;;;;;;;;;5028177;28;20123;-68
2021/12/22 14:58:06;;;;;;;16.30;7.93;;;;;;;;;;5021078;28;20172;-68
2021/12/22 15:00:34;;;;;;;19.45;8.63;;;;;;;;;;5030082;28;20049;-69
2021/12/22 15:03:05;;;;;;;20.88;8.45;;;;;;;;;;5027595;28;20080;-68
2021/12/22 15:05:34;;;;;;;22.38;8.50;;;;;;;;;;5022978;28;20528;-68
2021/12/22 15:08:02;;;;;;;20.75;9.00;;;;;;;;;;5024634;28;20057;-68
2021/12/22 15:10:31;;;;;;;18.75;8.95;;;;;;;;;;5021525;28;20037;-68